Nearby METAR Reports

 

KPIA - Peoria, Illinois, USA
Distance from station: SSW 11mi, 18km
Updated: 11/17/2017 3:54pm
Mist, Overcast
Mist, Overcast
 Wind from S
Wind: S 14 mph , 22 km/h
Temperature: 45°F , 7°C
Wind Chill: 39°F , 4°C
Dew Point: 41°F , 5°C
Humidity: 87%
Barometer: 29.70 inHg , 1005.8 hPa
Summary: Mist
Clouds: Overcast
Visibility: 6 miles , 10 km
Cloud details: Overcast 1700 ft
2017/11/17 21:54 KPIA 172154Z 17012KT 6SM BR OVC017 07/05 A2970 RMK AO2 LTG DSNT NE RAE34 SLP061 P0004 T00670050
KC75 - Lacon, Illinois, USA
Distance from station: NE 18mi, 30km
Updated: 11/17/2017 4:35pm
Nearby thunderstorm, Overcast
Nearby thunderstorm, Overcast
 Wind from S
Wind: S 12 mph , 19 km/h, Gust: 18 mph , 30 km/h
Temperature: 43°F , 6°C
Wind Chill: 37°F , 3°C
Dew Point: 41°F , 5°C
Humidity: 93%
Barometer: 29.68 inHg , 1005.1 hPa
Summary: Nearby Thunderstorm
Clouds: Overcast
Visibility: 7 miles , 11 km
Cloud details: Overcast 1800 ft
2017/11/17 22:35 KC75 172235Z AUTO 18010G16KT 7SM VCTS OVC018 06/05 A2968 RMK AO2 LTG DSNT NE T00620052
 
KGBG - Galesburg, Illinois, USA
Distance from station: W 43mi, 69km
Updated: 11/17/2017 4:35pm
Overcast
Overcast
 Wind from SE
Wind: SE 8 mph , 13 km/h
Temperature: 46°F , 8°C
Wind Chill: 42°F , 6°C
Dew Point: 43°F , 6°C
Humidity: 87%
Barometer: 29.64 inHg , 1003.7 hPa
Clouds: Overcast
Visibility: 10 miles , 16 km
Cloud details: Overcast 2100 ft
2017/11/17 22:35 KGBG 172235Z AUTO 14007KT 10SM OVC021 08/06 A2964 RMK AO2 LTG DSNT E T00750055
KBMI - Bloomington/Norm, Illinois, USA
Distance from station: ESE 44mi, 71km
Updated: 11/17/2017 3:56pm
Overcast
Overcast
 Wind from SSE
Wind: SSE 21 mph , 33 km/h
Temperature: 43°F , 6°C
Wind Chill: 34°F , 1°C
Dew Point: 39°F , 4°C
Humidity: 87%
Barometer: 29.72 inHg , 1006.4 hPa
Clouds: Overcast
Visibility: 7 miles , 11 km
Cloud details: Overcast 1400 ft
2017/11/17 21:56 KBMI 172156Z 16018KT 7SM OVC014 06/04 A2972 RMK AO2 SLP089 T00560039
 
KVYS - Peru, Illinois, USA
Distance from station: NNE 44mi, 71km
Updated: 11/17/2017 4:35pm
Thunderstorm, Mist, Overcast
Thunderstorm, Mist, Overcast
 Wind from SSE
Wind: SSE 13 mph , 20 km/h
Temperature: 39°F , 4°C
Wind Chill: 31°F , -1°C
Dew Point: 39°F , 4°C
Humidity: 100%
Barometer: 29.69 inHg , 1005.4 hPa
Summary: Thunderstorm, Mist
Clouds: Overcast
Visibility: 2 1/2 miles , 4 km
Cloud details: Mostly cloudy 600 ft
Overcast 1600 ft
2017/11/17 22:35 KVYS 172235Z AUTO 15011KT 2 1/2SM TS BR BKN006 OVC016 04/04 A2969 RMK AO2 LTG DSNT E P0001 T00410035
KAAA - Lincoln, Illinois, USA
Distance from station: SSE 48mi, 77km
Updated: 11/17/2017 4:35pm
Overcast
Overcast
 Wind from S
Wind: S 14 mph , 22 km/h, Gust: 21 mph , 33 km/h
Temperature: 46°F , 8°C
Wind Chill: 40°F , 4°C
Dew Point: 43°F , 6°C
Humidity: 87%
Barometer: 29.71 inHg , 1006.1 hPa
Clouds: Overcast
Visibility: 10 miles , 16 km
Cloud details: Overcast 2300 ft
2017/11/17 22:35 KAAA 172235Z AUTO 17012G18KT 10SM OVC023 08/06 A2971 RMK AO2 LTG DSNT N AND NE T00830060
 
KPNT - Pontiac, Illinois, USA
Distance from station: E 53mi, 85km
Updated: 11/17/2017 4:35pm
Light thunderstorm, Rain, Overcast
Light thunderstorm, Rain, Overcast
 Wind from SSE
Wind: SSE 14 mph , 22 km/h
Temperature: 43°F , 6°C
Wind Chill: 36°F , 2°C
Dew Point: 43°F , 6°C
Humidity: 100%
Barometer: 29.71 inHg , 1006.1 hPa
Summary: Light thunderstorm, Rain
Clouds: Overcast
Visibility: 5 miles , 8 km
Cloud details: Overcast 1800 ft
2017/11/17 22:35 KPNT 172235Z AUTO 16012KT 5SM -TSRA OVC018 06/06 A2971 RMK AO2 LTG DSNT N E AND S P0011 T00610059
KMQB - Macomb Muni, Illinois, USA
Distance from station: WSW 58mi, 93km
Updated: 11/17/2017 4:35pm
Overcast
Overcast
 Wind from SSE
Wind: SSE 13 mph , 20 km/h
Temperature: 48°F , 9°C
Wind Chill: 43°F , 6°C
Dew Point: 43°F , 6°C
Humidity: 82%
Barometer: 29.65 inHg , 1004.1 hPa
Clouds: Overcast
Visibility: 10 miles , 16 km
Cloud details: Partly cloudy 2200 ft
Mostly cloudy 3100 ft
Overcast 3800 ft
2017/11/17 22:35 KMQB 172235Z AUTO 16011KT 10SM SCT022 BKN031 OVC038 09/06 A2965 RMK AO2 LTG DSNT NE T00880061
 
KMLI - Moline/Quad City, Illinois, USA
Distance from station: NW 64mi, 103km
Updated: 11/17/2017 3:52pm
Haze, Overcast
Haze, Overcast
 Wind from SSE
Wind: SSE 7 mph , 11 km/h
Temperature: 45°F , 7°C
Wind Chill: 41°F , 5°C
Dew Point: 39°F , 4°C
Humidity: 81%
Barometer: 29.63 inHg , 1003.4 hPa
Summary: Haze
Clouds: Overcast
Visibility: 5 miles , 8 km
Cloud details: Overcast 1700 ft
2017/11/17 21:52 KMLI 172152Z 15006KT 5SM HZ OVC017 07/04 A2963 RMK AO2 SLP037 T00720044
KSQI - Sterling Rockfal, Illinois, USA
Distance from station: N 64mi, 103km
Updated: 11/17/2017 3:56pm
Light rain, Mist, Overcast
Light rain, Mist, Overcast
 Wind from SSE
Wind: SSE 12 mph , 19 km/h, Gust: 17 mph , 28 km/h
Temperature: 43°F , 6°C
Wind Chill: 37°F , 3°C
Dew Point: 37°F , 3°C
Humidity: 81%
Barometer: 29.68 inHg , 1005.1 hPa
Summary: Light rain, Mist
Clouds: Overcast
Visibility: 6 miles , 10 km
Cloud details: Overcast 1400 ft
2017/11/17 21:56 KSQI 172156Z AUTO 15010G15KT 6SM -RA BR OVC014 06/03 A2968 RMK AO2 RAB55 SLP071 P0000 T00560033
 
KSPI - Springfield, Illinois, USA
Distance from station: S 67mi, 108km
Updated: 11/17/2017 3:52pm
Overcast
Overcast
 Wind from S
Wind: S 16 mph , 26 km/h, Gust: 24 mph , 39 km/h
Temperature: 50°F , 10°C
Wind Chill: 44°F , 7°C
Dew Point: 43°F , 6°C
Humidity: 76%
Barometer: 29.72 inHg , 1006.4 hPa
Clouds: Overcast
Visibility: 9 miles , 14 km
Cloud details: Mostly cloudy 2200 ft
Overcast 3000 ft
2017/11/17 21:52 KSPI 172152Z 17014G21KT 9SM BKN022 OVC030 10/06 A2972 RMK AO2 SLP068 T01000061
KDVN - Davenport/Quad C, Iowa, USA
Distance from station: NW 74mi, 120km
Updated: 11/17/2017 4:12pm
Mist, Overcast
Mist, Overcast
 Wind from SSE
Wind: SSE 10 mph , 17 km/h
Temperature: 43°F , 6°C
Wind Chill: 37°F , 3°C
Dew Point: 39°F , 4°C
Humidity: 87%
Barometer: 29.64 inHg , 1003.7 hPa
Summary: Mist
Clouds: Overcast
Visibility: 3 miles , 5 km
Cloud details: Overcast 1600 ft
2017/11/17 22:12 KDVN 172212Z AUTO 15009KT 3SM BR OVC016 06/04 A2964 RMK AO2 T00610044